createdAt,value
2022-10-02T02:10:16.769Z,97862.38
2022-10-02T02:13:29.614Z,97864.78
2022-10-02T02:16:42.901Z,97875.19
2022-10-02T02:19:55.414Z,97874.22
2022-10-02T02:26:36.558Z,97887.34
2022-10-02T02:29:46.312Z,97887.34
2022-10-02T02:32:58.826Z,97897.81
2022-10-02T02:36:12.762Z,97891.66
2022-10-02T02:39:25.174Z,97895.00
2022-10-02T02:42:39.525Z,97892.50
2022-10-02T02:45:51.562Z,97895.97
2022-10-02T02:49:02.836Z,97887.81
2022-10-02T02:52:13.589Z,97896.53
2022-10-02T02:55:23.076Z,97889.50
2022-10-02T02:58:39.480Z,97898.19
2022-10-02T03:01:45.619Z,97900.00
2022-10-02T03:04:52.136Z,97899.78
2022-10-02T03:08:02.675Z,97914.69
2022-10-02T03:11:17.834Z,97914.69
2022-10-02T03:15:05.998Z,97909.22
2022-10-02T03:18:26.118Z,97926.81
2022-10-02T03:21:37.750Z,97905.00
2022-10-02T03:24:51.610Z,97918.03
2022-10-02T03:28:05.905Z,97928.34
2022-10-02T03:31:17.564Z,97932.53
2022-10-02T03:34:23.790Z,97922.88
2022-10-02T03:37:31.685Z,97927.94
2022-10-02T03:40:37.396Z,97943.47
2022-10-02T03:43:43.950Z,97930.28
2022-10-02T03:46:52.387Z,97932.59
2022-10-02T03:49:58.943Z,97940.47
2022-10-02T03:53:05.596Z,97938.59
2022-10-02T03:56:15.582Z,97944.56
2022-10-02T03:59:34.331Z,97948.88
2022-10-02T04:02:47.939Z,97962.00
2022-10-02T04:05:58.352Z,97955.06
2022-10-02T04:09:09.141Z,97948.16
2022-10-02T04:12:19.279Z,97963.09
2022-10-02T04:15:31.020Z,97969.31
2022-10-02T04:18:46.334Z,97964.06
2022-10-02T04:21:59.398Z,97978.03
2022-10-02T04:25:13.606Z,97986.72
2022-10-02T04:28:25.658Z,97979.81
2022-10-02T04:31:31.820Z,97994.69
2022-10-02T04:34:41.058Z,98005.00
2022-10-02T04:38:14.622Z,98008.25
2022-10-02T04:41:42.378Z,98008.34
2022-10-02T04:45:01.112Z,98003.00
2022-10-02T04:48:31.784Z,98024.53
2022-10-02T04:52:03.183Z,98021.72
2022-10-02T04:55:31.641Z,98019.09
2022-10-02T04:58:51.455Z,98029.69
2022-10-02T05:02:08.181Z,98023.53
2022-10-02T05:05:24.727Z,98029.41
2022-10-02T05:08:50.646Z,98040.56
2022-10-02T05:12:15.653Z,98037.81
2022-10-02T05:15:39.090Z,98051.03
2022-10-02T05:19:01.182Z,98050.94
2022-10-02T05:22:27.678Z,98047.56
2022-10-02T05:25:53.056Z,98059.00
2022-10-02T05:29:26.628Z,98051.22
2022-10-02T05:32:46.870Z,98055.63
2022-10-02T05:36:20.240Z,98057.31
2022-10-02T05:39:31.235Z,98067.22
2022-10-02T05:42:45.168Z,98066.28
2022-10-02T05:45:56.118Z,98070.41
2022-10-02T05:49:05.866Z,98075.03
2022-10-02T05:52:17.873Z,98071.91
2022-10-02T05:55:29.112Z,98076.75
2022-10-02T05:58:41.619Z,98079.97
2022-10-02T06:01:51.143Z,98076.03
2022-10-02T06:05:02.931Z,98085.31
2022-10-02T06:08:13.850Z,98082.56
2022-10-02T06:11:24.471Z,98094.56
2022-10-02T06:14:37.294Z,98098.31
2022-10-02T06:17:48.315Z,98098.69
2022-10-02T06:20:58.735Z,98091.59
2022-10-02T06:24:10.450Z,98103.56
2022-10-02T06:27:25.316Z,98095.84
2022-10-02T06:30:38.509Z,98106.16
2022-10-02T06:33:45.567Z,98109.53
2022-10-02T06:37:11.189Z,98122.75
2022-10-02T06:40:47.216Z,98125.28
2022-10-02T06:44:09.547Z,98125.19
2022-10-02T06:47:34.464Z,98123.44
2022-10-02T06:50:46.100Z,98118.66
2022-10-02T06:54:08.675Z,98128.56
2022-10-02T06:57:27.517Z,98131.53
2022-10-02T07:00:38.566Z,98126.09
2022-10-02T07:04:03.138Z,98137.47
2022-10-02T07:07:24.194Z,98138.94
2022-10-02T07:10:38.950Z,98136.25
2022-10-02T07:13:59.668Z,98133.31
2022-10-02T07:17:22.165Z,98142.59
2022-10-02T07:20:47.710Z,98141.34
2022-10-02T07:24:02.388Z,98145.56
2022-10-02T07:27:19.381Z,98153.66
2022-10-02T07:30:25.448Z,98150.63
2022-10-02T07:33:45.666Z,98155.06
2022-10-02T07:37:07.946Z,98148.88
2022-10-02T07:40:31.199Z,98160.53
2022-10-02T07:43:47.764Z,98158.03
2022-10-02T07:47:03.028Z,98156.78
2022-10-02T07:50:14.798Z,98155.91
2022-10-02T07:53:31.992Z,98167.84
2022-10-02T07:56:39.658Z,98161.75
2022-10-02T07:59:47.559Z,98162.59
2022-10-02T08:02:57.602Z,98161.19
2022-10-02T08:06:06.434Z,98157.63
2022-10-02T08:09:19.433Z,98156.97
2022-10-02T08:12:30.778Z,98149.63
2022-10-02T08:15:44.844Z,98151.09
2022-10-02T08:18:55.833Z,98155.50
2022-10-02T08:22:06.182Z,98149.84
2022-10-02T08:25:28.427Z,98139.06
2022-10-02T08:28:40.767Z,98142.47
2022-10-02T08:31:47.346Z,98139.72
2022-10-02T08:34:53.537Z,98141.28
2022-10-02T08:38:14.718Z,98135.06
2022-10-02T08:41:58.379Z,98154.13
2022-10-02T08:45:54.214Z,98143.50
2022-10-02T08:49:55.508Z,98141.50
2022-10-02T08:53:37.822Z,98142.22
2022-10-02T08:57:03.441Z,98151.47
2022-10-02T09:00:16.222Z,98134.22
2022-10-02T09:04:21.777Z,98140.75
2022-10-02T09:08:14.171Z,98123.38
2022-10-02T09:12:06.119Z,98121.34
2022-10-02T09:15:22.091Z,98115.19
2022-10-02T09:18:52.090Z,98103.53
2022-10-02T09:22:03.485Z,98109.88
2022-10-02T09:25:40.556Z,98102.41
2022-10-02T09:29:34.763Z,98109.13
2022-10-02T09:33:17.192Z,98097.75
2022-10-02T09:36:55.185Z,98108.91
2022-10-02T09:40:32.696Z,98104.75
2022-10-02T09:44:03.735Z,98103.63
2022-10-02T09:47:47.215Z,98095.63
2022-10-02T09:51:27.735Z,98124.28
2022-10-02T09:55:22.394Z,98103.41
2022-10-02T09:59:09.415Z,98111.84
2022-10-02T10:02:50.947Z,98095.75
2022-10-02T10:06:21.256Z,98118.63
2022-10-02T10:10:00.291Z,98097.06
2022-10-02T10:13:44.512Z,98101.28
2022-10-02T10:17:27.422Z,98103.00
2022-10-02T10:20:57.604Z,98087.63
2022-10-02T10:28:17.512Z,98069.53
2022-10-02T10:36:33.799Z,98076.56
2022-10-02T10:44:25.050Z,98076.66
2022-10-02T10:48:04.183Z,98053.50
2022-10-02T10:51:35.870Z,98058.66
2022-10-02T10:54:57.148Z,98055.88
2022-10-02T10:58:17.571Z,98055.88
2022-10-02T11:01:39.857Z,98064.66
2022-10-02T11:05:08.378Z,98072.88
2022-10-02T11:08:41.180Z,98084.38
2022-10-02T11:12:09.692Z,98076.72
2022-10-02T11:15:30.313Z,98070.69
2022-10-02T11:19:10.358Z,98071.94
2022-10-02T11:22:32.250Z,98073.13
2022-10-02T11:25:49.160Z,98061.38
2022-10-02T11:29:28.009Z,98046.41
2022-10-02T11:32:54.378Z,98077.91
2022-10-02T11:36:24.304Z,98062.88
2022-10-02T11:39:56.744Z,98051.91
2022-10-02T11:43:30.523Z,98071.16
2022-10-02T11:47:00.345Z,98060.13
2022-10-02T11:50:31.710Z,98041.38
2022-10-02T11:54:12.504Z,98033.88
2022-10-02T11:57:35.311Z,98034.47
2022-10-02T12:00:59.847Z,98023.72
2022-10-02T12:04:24.754Z,98024.56
2022-10-02T12:07:42.264Z,98015.81
2022-10-02T12:11:00.303Z,98021.63
2022-10-02T12:14:22.665Z,98017.81
2022-10-02T12:17:54.301Z,98013.47
2022-10-02T12:21:29.135Z,98012.47
2022-10-02T12:24:59.226Z,98012.00
2022-10-02T12:28:16.076Z,98010.56
2022-10-02T12:31:28.586Z,98000.72
2022-10-02T12:34:48.573Z,97993.72
2022-10-02T12:38:06.139Z,97986.44
2022-10-02T12:41:27.491Z,97966.44
2022-10-02T12:45:11.895Z,97984.38
2022-10-02T12:48:32.897Z,97980.56
2022-10-02T12:51:44.269Z,97975.09
2022-10-02T12:55:31.991Z,98008.50
2022-10-02T12:58:50.171Z,97984.25
2022-10-02T13:02:37.515Z,97971.31
2022-10-02T13:06:32.231Z,97968.69
2022-10-02T13:09:50.377Z,97975.00
2022-10-02T13:13:17.612Z,97952.66
2022-10-02T13:16:34.079Z,97945.66
2022-10-02T13:19:56.950Z,97951.78
2022-10-02T13:23:13.598Z,97948.41
2022-10-02T13:26:33.304Z,97943.50
2022-10-02T13:29:53.273Z,97939.16
2022-10-02T13:33:28.840Z,97942.06
2022-10-02T13:36:55.913Z,97952.44
2022-10-02T13:40:20.462Z,97938.91
2022-10-02T13:43:57.683Z,97927.84
2022-10-02T13:47:39.870Z,97922.81
2022-10-02T13:50:52.451Z,97923.22
2022-10-02T13:54:29.918Z,97932.44
2022-10-02T13:57:51.492Z,97930.59
2022-10-02T14:01:23.975Z,97930.09
2022-10-02T14:04:46.499Z,97935.00
2022-10-02T14:08:07.011Z,97918.19
2022-10-02T14:11:25.351Z,97926.84
2022-10-02T14:14:46.312Z,97916.50
2022-10-02T14:18:16.589Z,97910.50
2022-10-02T14:21:31.293Z,97923.25
2022-10-02T14:25:06.264Z,97913.13
2022-10-02T14:28:48.772Z,97904.69
2022-10-02T14:32:17.833Z,97906.59
2022-10-02T14:35:37.633Z,97916.63
2022-10-02T14:39:08.017Z,97909.78
2022-10-02T14:42:45.018Z,97921.16
2022-10-02T14:46:21.060Z,97926.00
2022-10-02T14:49:55.926Z,97914.00
2022-10-02T14:53:22.757Z,97920.88
2022-10-02T14:56:57.646Z,97916.25
2022-10-02T15:00:19.187Z,97917.59
2022-10-02T15:03:43.671Z,97919.91
2022-10-02T15:07:12.410Z,97916.09
2022-10-02T15:10:24.338Z,97932.84
2022-10-02T15:13:40.713Z,97952.59
2022-10-02T15:17:06.030Z,97948.53
2022-10-02T15:20:25.211Z,97934.94
2022-10-02T15:23:49.964Z,97945.78
2022-10-02T15:26:59.630Z,97973.69
2022-10-02T15:30:19.166Z,98001.47
2022-10-02T15:33:32.538Z,98017.66
2022-10-02T15:36:54.467Z,97968.97
2022-10-02T15:40:14.108Z,97949.06
2022-10-02T15:43:44.534Z,97939.78
2022-10-02T15:46:58.184Z,97928.50
2022-10-02T15:50:36.285Z,97915.78
2022-10-02T15:54:03.424Z,97917.47
2022-10-02T15:57:32.648Z,97910.53
2022-10-02T16:01:03.893Z,97912.22
2022-10-02T16:04:18.364Z,97909.28
2022-10-02T16:07:54.105Z,97921.09
2022-10-02T16:11:42.476Z,97918.25
2022-10-02T16:14:59.240Z,97903.38
2022-10-02T16:18:36.185Z,97909.16
2022-10-02T16:21:58.531Z,97925.44
2022-10-02T16:25:23.441Z,97917.34
2022-10-02T16:28:44.657Z,97918.81
2022-10-02T16:32:06.148Z,97917.16
2022-10-02T16:35:46.717Z,97917.78
2022-10-02T16:38:55.029Z,97927.53
2022-10-02T16:42:06.362Z,97910.22
2022-10-02T16:45:39.290Z,97919.97
2022-10-02T16:48:54.992Z,97920.91
2022-10-02T16:52:08.013Z,97918.19
2022-10-02T16:55:24.062Z,97915.56
2022-10-02T16:58:33.694Z,97905.91
2022-10-02T17:02:05.937Z,97914.41
2022-10-02T17:05:27.166Z,97909.81
2022-10-02T17:08:40.170Z,97904.38
2022-10-02T17:11:54.375Z,97897.00
2022-10-02T17:15:06.242Z,97901.22
2022-10-02T17:18:26.647Z,97899.41
2022-10-02T17:21:42.341Z,97898.06
2022-10-02T17:24:55.987Z,97902.34
2022-10-02T17:28:07.368Z,97891.44
2022-10-02T17:31:36.409Z,97895.53
2022-10-02T17:34:52.674Z,97899.09
2022-10-02T17:38:13.484Z,97890.47
2022-10-02T17:41:35.844Z,97896.69
2022-10-02T17:44:53.807Z,97885.41
2022-10-02T17:48:22.475Z,97882.06
2022-10-02T17:51:53.076Z,97877.03
2022-10-02T17:55:26.719Z,97878.91
2022-10-02T17:58:40.999Z,97882.69
2022-10-02T18:01:57.005Z,97881.00
2022-10-02T18:05:29.243Z,97883.75
2022-10-02T18:09:03.435Z,97889.41
2022-10-02T18:12:32.286Z,97888.53
2022-10-02T18:16:03.477Z,97949.88
2022-10-02T18:19:30.812Z,97956.38
2022-10-02T18:22:55.212Z,97950.34
2022-10-02T18:26:23.363Z,97946.31
2022-10-02T18:29:46.820Z,97966.16
2022-10-02T18:33:14.909Z,97956.63
2022-10-02T18:36:35.065Z,97960.00
2022-10-02T18:39:45.106Z,97950.63
2022-10-02T18:43:06.866Z,97958.59
2022-10-02T18:46:24.416Z,97946.22
2022-10-02T18:49:40.738Z,97948.94
2022-10-02T18:53:08.294Z,97946.31
2022-10-02T18:56:15.305Z,97960.25
2022-10-02T18:59:35.354Z,97952.38
2022-10-02T19:06:51.740Z,97963.91
2022-10-02T19:10:26.390Z,97962.97
2022-10-02T19:13:33.056Z,97966.63
2022-10-02T19:16:58.830Z,97970.22
2022-10-02T19:20:31.108Z,97969.47
2022-10-02T19:23:42.551Z,97977.41
2022-10-02T19:26:54.699Z,97976.38
2022-10-02T19:30:03.652Z,97971.84
2022-10-02T19:33:14.245Z,97987.56
2022-10-02T19:36:25.165Z,97982.97
2022-10-02T19:39:34.552Z,97977.72
2022-10-02T19:42:49.746Z,97983.75
2022-10-02T19:45:58.042Z,97986.34
2022-10-02T19:49:09.525Z,97985.59
2022-10-02T19:52:41.115Z,97989.16
2022-10-02T19:55:52.785Z,97983.31
2022-10-02T19:59:03.953Z,97979.09
2022-10-02T20:02:18.999Z,97987.03
2022-10-02T20:05:29.693Z,97996.88
2022-10-02T20:08:41.502Z,97993.47
2022-10-02T20:11:50.605Z,97989.25
2022-10-02T20:15:03.295Z,97993.00
2022-10-02T20:18:07.888Z,97994.88
2022-10-02T20:21:21.915Z,97996.75
2022-10-02T20:24:34.347Z,98006.44
2022-10-02T20:27:47.237Z,98015.41
2022-10-02T20:30:56.590Z,98011.09
2022-10-02T20:34:08.179Z,98012.13
2022-10-02T20:37:20.530Z,98009.59
2022-10-02T20:40:30.452Z,98018.38
2022-10-02T20:43:42.548Z,98019.13
2022-10-02T20:47:18.804Z,98020.06
2022-10-02T20:50:48.181Z,98014.84
2022-10-02T20:54:29.207Z,98014.09
2022-10-02T20:58:14.001Z,98018.63
2022-10-02T21:01:21.257Z,98013.69
2022-10-02T21:04:49.407Z,98022.44
2022-10-02T21:08:24.397Z,98013.84
2022-10-02T21:11:59.350Z,98008.44
2022-10-02T21:15:25.422Z,98012.81
2022-10-02T21:19:07.965Z,98011.81
2022-10-02T21:22:45.556Z,98017.22
2022-10-02T21:26:17.825Z,98019.94
2022-10-02T21:29:49.245Z,98024.31
2022-10-02T21:33:06.342Z,98015.34
2022-10-02T21:36:23.753Z,98022.09
2022-10-02T21:40:06.749Z,98025.47
2022-10-02T21:43:51.115Z,98028.09
2022-10-02T21:47:33.600Z,98034.25
2022-10-02T21:51:14.150Z,98032.56
2022-10-02T21:54:48.222Z,98039.69
2022-10-02T21:58:43.594Z,98047.69
2022-10-02T22:02:30.650Z,98041.50
2022-10-02T22:05:54.095Z,98048.53
2022-10-02T22:09:18.284Z,98042.19
2022-10-02T22:12:43.723Z,98040.25
2022-10-02T22:15:58.393Z,98047.25
2022-10-02T22:19:22.159Z,98042.88
2022-10-02T22:22:47.092Z,98051.47
2022-10-02T22:26:08.147Z,98044.47
2022-10-02T22:29:20.471Z,98043.53
2022-10-02T22:33:15.631Z,98047.09
2022-10-02T22:36:54.468Z,98046.31
2022-10-02T22:40:06.178Z,98044.91
2022-10-02T22:43:19.547Z,98050.31
2022-10-02T22:46:39.115Z,98048.78
2022-10-02T22:49:51.476Z,98057.75
2022-10-02T22:53:06.564Z,98063.16
2022-10-02T22:56:26.100Z,98060.78
2022-10-02T22:59:40.889Z,98060.97
2022-10-02T23:02:54.610Z,98062.72
2022-10-02T23:06:07.667Z,98062.03
2022-10-02T23:09:26.018Z,98068.22
2022-10-02T23:12:40.264Z,98073.34
2022-10-02T23:15:56.045Z,98079.16
2022-10-02T23:19:12.639Z,98074.53
2022-10-02T23:22:29.055Z,98069.06
2022-10-02T23:25:47.399Z,98073.13
2022-10-02T23:28:59.974Z,98083.38
2022-10-02T23:32:17.560Z,98097.03
2022-10-02T23:35:32.032Z,98095.22
2022-10-02T23:38:48.403Z,98096.72
2022-10-02T23:42:03.166Z,98092.16
2022-10-02T23:45:20.066Z,98105.91
2022-10-02T23:48:26.284Z,98092.81
2022-10-02T23:51:44.532Z,98109.28
2022-10-02T23:55:07.265Z,98088.25
2022-10-02T23:58:30.662Z,98094.50
